Time;durP1;ratioP1;P1;durP2;ratioP2;P2;SDS_P1;SDS_P2;PMS_P1;PMS_P2;Temp;Humidity;BMP_temperature;BMP_pressure;BME280_temperature;BME280_humidity;BME280_pressure;Samples;Min_cycle;Max_cycle;Signal;HPM_P1;HPM_P2
2023/08/20 00:00:06;;;;;;;15.70;14.20;;;;;;;21.93;93.41;100950.18;105697;1261;99152;-80
2023/08/20 00:03:17;;;;;;;14.20;12.90;;;;;;;21.87;92.97;100950.77;105600;1257;100526;-81
2023/08/20 00:06:03;;;;;;;14.30;12.90;;;;;;;21.84;92.95;100945.33;105731;1265;96706;-80
2023/08/20 00:08:49;;;;;;;14.20;12.70;;;;;;;21.83;92.98;100946.09;105739;1261;97271;-81
2023/08/20 00:11:36;;;;;;;12.80;11.60;;;;;;;21.82;93.07;100940.69;106226;1261;101387;-79
2023/08/20 00:14:58;;;;;;;12.00;10.80;;;;;;;21.79;92.98;100940.52;106032;1261;100340;-83
2023/08/20 00:17:44;;;;;;;13.60;12.30;;;;;;;21.74;93.36;100938.21;106213;1257;97867;-80
2023/08/20 00:20:30;;;;;;;13.20;11.90;;;;;;;21.71;93.58;100938.13;106234;1261;96689;-81
2023/08/20 00:23:16;;;;;;;13.30;12.00;;;;;;;21.68;93.51;100936.95;106536;1258;96526;-82
2023/08/20 00:26:02;;;;;;;14.10;12.80;;;;;;;21.67;93.57;100935.61;106317;1258;100000;-81
2023/08/20 00:28:48;;;;;;;14.50;12.20;;;;;;;21.65;94.25;100934.94;106331;1259;99291;-82
2023/08/20 00:31:33;;;;;;;11.90;10.80;;;;;;;21.63;93.95;100936.09;106201;1261;99371;-81
2023/08/20 00:34:19;;;;;;;18.50;10.50;;;;;;;21.54;93.74;100937.45;106045;1263;96704;-81
2023/08/20 00:37:04;;;;;;;12.50;11.00;;;;;;;21.51;93.69;100937.57;106225;1258;97801;-81
2023/08/20 00:39:50;;;;;;;10.50;9.50;;;;;;;21.47;93.45;100936.64;106141;1258;100558;-82
2023/08/20 00:42:36;;;;;;;11.20;10.00;;;;;;;21.44;93.54;100929.71;106260;1257;99950;-81
2023/08/20 00:45:23;;;;;;;10.80;9.80;;;;;;;21.41;93.52;100924.39;106161;1257;97887;-82
2023/08/20 00:48:09;;;;;;;15.80;11.20;;;;;;;21.38;93.72;100926.73;106358;1260;96549;-81
2023/08/20 00:50:54;;;;;;;14.50;12.70;;;;;;;21.34;94.01;100928.64;106425;1257;97226;-83
2023/08/20 00:53:40;;;;;;;15.40;13.80;;;;;;;21.35;94.26;100924.72;106048;1258;109628;-83
2023/08/20 00:56:26;;;;;;;17.00;15.30;;;;;;;21.37;94.34;100922.58;106259;1261;100385;-83
2023/08/20 00:59:12;;;;;;;17.80;15.90;;;;;;;21.38;94.60;100919.27;106252;1258;97916;-80
2023/08/20 01:01:58;;;;;;;16.50;14.80;;;;;;;21.37;94.85;100923.73;106336;1260;95885;-79
2023/08/20 01:04:45;;;;;;;17.40;14.80;;;;;;;21.36;95.09;100928.08;105732;1264;97088;-81
2023/08/20 01:08:02;;;;;;;17.70;16.00;;;;;;;21.34;94.85;100927.92;106360;1258;100043;-82
2023/08/20 01:11:01;;;;;;;15.80;14.20;;;;;;;21.34;94.79;100925.04;106203;1260;100274;-81
2023/08/20 01:13:46;;;;;;;18.00;15.20;;;;;;;21.36;94.78;100924.69;106144;1258;97729;-79
2023/08/20 01:16:31;;;;;;;19.30;15.20;;;;;;;21.36;95.05;100928.17;106222;1261;96560;-81
2023/08/20 01:19:19;;;;;;;22.50;18.20;;;;;;;21.34;95.04;100931.48;106378;1258;97057;-81
2023/08/20 01:22:29;;;;;;;18.00;16.10;;;;;;;21.33;95.52;100931.52;106378;1261;101399;-82
2023/08/20 01:25:25;;;;;;;18.30;16.10;;;;;;;21.31;95.88;100929.73;106169;1262;100565;-82
2023/08/20 01:28:22;;;;;;;17.00;15.20;;;;;;;21.29;95.76;100931.89;106346;1260;97783;-81
2023/08/20 01:31:08;;;;;;;18.50;15.70;;;;;;;21.29;95.58;100932.97;106234;1261;97144;-81
2023/08/20 01:33:54;;;;;;;17.20;15.70;;;;;;;21.30;95.54;100935.16;106333;1263;96406;-80
2023/08/20 01:36:40;;;;;;;18.40;16.60;;;;;;;21.31;95.64;100932.41;106293;1263;100818;-81
2023/08/20 01:39:25;;;;;;;19.90;17.90;;;;;;;21.32;95.98;100929.87;106170;1261;99906;-82
2023/08/20 01:42:11;;;;;;;17.90;16.00;;;;;;;21.31;95.92;100929.63;106268;1257;106365;-81
2023/08/20 01:44:57;;;;;;;20.40;17.70;;;;;;;21.31;96.05;100934.42;106235;1261;96558;-80
2023/08/20 01:47:43;;;;;;;20.90;16.80;;;;;;;21.32;95.90;100938.46;106324;1261;96503;-81
2023/08/20 01:50:29;;;;;;;19.10;17.10;;;;;;;21.33;95.96;100937.40;106279;1261;100452;-82
2023/08/20 01:53:14;;;;;;;19.50;16.40;;;;;;;21.33;96.18;100941.05;106235;1262;99131;-80
2023/08/20 01:56:01;;;;;;;17.40;15.70;;;;;;;21.32;96.26;100941.04;106359;1261;99058;-80
2023/08/20 01:58:47;;;;;;;18.90;16.90;;;;;;;21.31;96.17;100940.74;106133;1258;96603;-80
2023/08/20 02:01:32;;;;;;;18.00;15.40;;;;;;;21.31;96.15;100938.08;106227;1257;96698;-80
2023/08/20 02:04:17;;;;;;;18.40;15.50;;;;;;;21.29;96.13;100935.81;106301;1261;100741;-80
2023/08/20 02:07:03;;;;;;;16.90;14.70;;;;;;;21.26;95.94;100940.00;106275;1260;99083;-81
2023/08/20 02:09:49;;;;;;;18.40;16.50;;;;;;;21.23;96.39;100945.14;106344;1257;97792;-80
2023/08/20 02:12:34;;;;;;;18.80;16.80;;;;;;;21.21;96.45;100944.55;105782;1257;97478;-81
2023/08/20 02:15:19;;;;;;;20.00;16.40;;;;;;;21.18;96.16;100942.27;105700;1262;97516;-82
2023/08/20 02:18:05;;;;;;;16.20;14.70;;;;;;;21.12;96.28;100944.09;105714;1258;100167;-79
2023/08/20 02:20:50;;;;;;;15.80;14.20;;;;;;;21.06;96.13;100945.62;105466;1263;99134;-82
2023/08/20 02:23:36;;;;;;;15.50;13.20;;;;;;;21.03;96.09;100943.86;105927;1258;97945;-81
2023/08/20 02:26:21;;;;;;;13.90;12.60;;;;;;;21.00;96.19;100943.48;106267;1264;97808;-81
2023/08/20 02:29:07;;;;;;;14.40;13.00;;;;;;;20.97;95.97;100944.16;105646;1258;97138;-80
2023/08/20 02:31:55;;;;;;;14.30;12.90;;;;;;;20.93;95.96;100942.96;105706;1257;101420;-81
2023/08/20 02:34:41;;;;;;;18.80;12.30;;;;;;;20.90;95.98;100939.20;105663;1258;100064;-80
2023/08/20 02:37:26;;;;;;;14.40;13.00;;;;;;;20.84;95.87;100936.82;105574;1261;97727;-80
2023/08/20 02:40:13;;;;;;;16.10;14.50;;;;;;;20.80;96.14;100936.25;105546;1261;96796;-81
2023/08/20 02:42:58;;;;;;;14.90;13.40;;;;;;;20.77;96.23;100940.30;105732;1258;97172;-79
2023/08/20 02:45:44;;;;;;;13.90;12.60;;;;;;;20.75;95.85;100945.27;106285;1258;100859;-82
2023/08/20 02:48:30;;;;;;;15.60;14.10;;;;;;;20.75;95.98;100943.90;106290;1258;100376;-82
2023/08/20 02:51:15;;;;;;;16.00;14.40;;;;;;;20.74;96.00;100940.36;105706;1269;97758;-80
2023/08/20 02:54:02;;;;;;;16.70;14.90;;;;;;;20.72;96.12;100938.69;106207;1266;97991;-80
2023/08/20 02:56:48;;;;;;;15.10;13.50;;;;;;;20.70;96.40;100935.80;106368;1257;96678;-80
2023/08/20 02:59:34;;;;;;;14.50;12.50;;;;;;;20.68;96.21;100934.25;107860;1257;108481;-80
2023/08/20 03:02:19;;;;;;;12.70;11.30;;;;;;;20.66;96.06;100930.67;106291;1260;99277;-82
2023/08/20 03:05:05;;;;;;;11.80;10.70;;;;;;;20.63;95.89;100932.79;106190;1258;99026;-80
2023/08/20 03:07:51;;;;;;;11.20;10.10;;;;;;;20.59;95.55;100931.63;106256;1258;96627;-81
2023/08/20 03:10:36;;;;;;;13.40;11.20;;;;;;;20.56;95.66;100932.29;106349;1260;96675;-80
2023/08/20 03:13:21;;;;;;;13.50;11.10;;;;;;;20.55;95.97;100937.05;106494;1257;100079;-80
2023/08/20 03:16:07;;;;;;;15.50;12.80;;;;;;;20.53;96.37;100938.80;106303;1260;99339;-80
2023/08/20 03:18:53;;;;;;;15.50;12.20;;;;;;;20.52;96.62;100941.37;106264;1257;97733;-80
2023/08/20 03:21:38;;;;;;;14.00;12.50;;;;;;;20.54;96.83;100938.83;106349;1258;96511;-81
2023/08/20 03:24:23;;;;;;;17.90;16.00;;;;;;;20.55;96.64;100945.98;106564;1257;96618;-81
2023/08/20 03:27:09;;;;;;;17.60;15.30;;;;;;;20.57;97.02;100948.20;106254;1257;100098;-82
2023/08/20 03:29:54;;;;;;;16.10;14.40;;;;;;;20.61;97.20;100956.16;106361;1257;108740;-81
2023/08/20 03:32:40;;;;;;;16.60;14.10;;;;;;;20.63;97.06;100957.41;106161;1261;99093;-79
2023/08/20 03:35:27;;;;;;;16.10;14.40;;;;;;;20.64;97.37;100953.57;106297;1258;98117;-80
2023/08/20 03:38:13;;;;;;;22.00;15.00;;;;;;;20.66;97.39;100955.45;105955;1257;96583;-80
2023/08/20 03:40:59;;;;;;;16.90;14.30;;;;;;;20.67;97.31;100956.17;106181;1257;101451;-80
2023/08/20 03:43:45;;;;;;;16.40;14.60;;;;;;;20.68;97.23;100957.73;106271;1257;99191;-80
2023/08/20 03:46:31;;;;;;;16.40;14.80;;;;;;;20.67;97.32;100955.36;106102;1261;98747;-80
2023/08/20 03:49:16;;;;;;;17.50;15.70;;;;;;;20.65;97.24;100950.20;105614;1260;96855;-80
2023/08/20 03:52:02;;;;;;;18.90;14.40;;;;;;;20.64;97.13;100948.27;105584;1257;97149;-82
2023/08/20 03:54:50;;;;;;;14.40;13.10;;;;;;;20.62;97.22;100951.56;105417;1258;100690;-81
2023/08/20 03:57:35;;;;;;;14.70;13.30;;;;;;;20.60;96.90;100951.30;105555;1258;99713;-82
2023/08/20 04:00:21;;;;;;;14.60;13.10;;;;;;;20.54;97.13;100954.67;106106;1257;97906;-79
2023/08/20 04:03:07;;;;;;;13.60;12.30;;;;;;;20.51;97.28;100957.13;106192;1260;97517;-80
2023/08/20 04:05:53;;;;;;;13.70;12.30;;;;;;;20.52;97.40;100958.55;105912;1257;96416;-81
2023/08/20 04:08:38;;;;;;;14.50;13.00;;;;;;;20.52;97.53;100959.91;106286;1257;99983;-82
2023/08/20 04:11:23;;;;;;;16.30;14.60;;;;;;;20.53;97.87;100959.66;106173;1261;100419;-79
2023/08/20 04:14:09;;;;;;;16.40;14.80;;;;;;;20.54;97.96;100964.65;105982;1256;98998;-81
2023/08/20 04:16:54;;;;;;;16.90;15.30;;;;;;;20.55;98.03;100961.70;105487;1258;97721;-84
2023/08/20 04:19:40;;;;;;;14.80;13.30;;;;;;;20.54;98.20;100962.39;105966;1257;97146;-80
2023/08/20 04:22:28;;;;;;;16.40;13.20;;;;;;;20.54;98.50;100966.38;105621;1260;100035;-80
2023/08/20 04:25:14;;;;;;;15.50;14.00;;;;;;;20.54;98.46;100964.10;106614;1260;99143;-79
2023/08/20 04:28:00;;;;;;;20.50;13.80;;;;;;;20.55;98.96;100965.21;105623;1271;97960;-80
2023/08/20 04:30:45;;;;;;;15.80;14.10;;;;;;;20.56;99.13;100965.23;105599;1260;97194;-80
2023/08/20 04:33:31;;;;;;;16.90;14.60;;;;;;;20.58;99.19;100964.50;105645;1258;97117;-81
2023/08/20 04:36:17;;;;;;;16.10;14.50;;;;;;;20.60;99.64;100961.16;105820;1257;101233;-79
2023/08/20 04:39:02;;;;;;;13.30;12.10;;;;;;;20.62;99.46;100962.39;106231;1257;100328;-80
2023/08/20 04:41:51;;;;;;;14.70;11.90;;;;;;;20.63;99.46;100964.16;106102;1261;98212;-79
2023/08/20 04:44:37;;;;;;;14.00;12.70;;;;;;;20.63;99.52;100959.70;105558;1263;96713;-81
2023/08/20 04:47:23;;;;;;;12.50;11.00;;;;;;;20.65;99.84;100962.13;106141;1257;97118;-82
2023/08/20 04:50:09;;;;;;;13.90;12.50;;;;;;;20.68;99.94;100963.69;106331;1261;100113;-81
2023/08/20 04:52:54;;;;;;;13.80;12.50;;;;;;;20.72;100.00;100962.69;106237;1263;99857;-84
2023/08/20 04:55:41;;;;;;;14.30;12.90;;;;;;;20.76;100.00;100959.88;106339;1269;98284;-82
2023/08/20 04:58:27;;;;;;;14.00;12.30;;;;;;;20.79;100.00;100962.69;106268;1258;96733;-83
2023/08/20 05:01:13;;;;;;;14.60;13.20;;;;;;;20.84;100.00;100966.66;106343;1263;97808;-83
2023/08/20 05:03:58;;;;;;;13.50;12.20;;;;;;;20.88;100.00;100965.37;106432;1260;99990;-81
2023/08/20 05:06:44;;;;;;;13.90;12.40;;;;;;;20.93;100.00;100966.17;106428;1260;100124;-81
2023/08/20 05:09:29;;;;;;;20.50;18.50;;;;;;;21.00;100.00;100962.20;106355;1260;98432;-81
2023/08/20 05:12:15;;;;;;;26.60;24.10;;;;;;;21.09;100.00;100960.48;106322;1257;96621;-81
2023/08/20 05:15:00;;;;;;;25.40;22.80;;;;;;;21.20;100.00;100966.44;106048;1258;96554;-81
2023/08/20 05:17:46;;;;;;;22.40;20.20;;;;;;;21.29;100.00;100965.07;106184;1257;100676;-81
2023/08/20 05:20:32;;;;;;;27.50;24.90;;;;;;;21.39;100.00;100966.88;106281;1258;100418;-81
2023/08/20 05:23:18;;;;;;;29.80;26.90;;;;;;;21.49;100.00;100967.69;106301;1260;97929;-82
2023/08/20 05:26:03;;;;;;;29.00;26.00;;;;;;;21.59;100.00;100968.42;106229;1257;96893;-81
2023/08/20 05:28:48;;;;;;;28.20;25.10;;;;;;;21.67;100.00;100967.56;106155;1257;97198;-79
2023/08/20 05:31:34;;;;;;;21.70;19.40;;;;;;;21.77;100.00;100966.52;106225;1273;100026;-82
2023/08/20 05:34:20;;;;;;;25.30;22.80;;;;;;;21.89;100.00;100969.77;106155;1260;99156;-81
2023/08/20 05:37:06;;;;;;;27.90;23.10;;;;;;;22.00;100.00;100972.48;106021;1257;97729;-82
2023/08/20 05:39:51;;;;;;;25.70;23.10;;;;;;;22.10;100.00;100976.71;106130;1260;96615;-82
2023/08/20 05:42:37;;;;;;;30.50;27.30;;;;;;;22.22;100.00;100980.85;106093;1256;97130;-80
2023/08/20 05:45:24;;;;;;;24.00;21.60;;;;;;;22.33;100.00;100981.14;106132;1258;101303;-81
2023/08/20 05:48:10;;;;;;;26.90;24.30;;;;;;;22.44;100.00;100983.84;106158;1257;100666;-82
2023/08/20 05:50:56;;;;;;;25.80;23.10;;;;;;;22.55;100.00;100983.31;106082;1260;98628;-81
2023/08/20 05:53:43;;;;;;;29.50;26.50;;;;;;;22.65;100.00;100985.09;105962;1257;97892;-82
2023/08/20 05:56:28;;;;;;;29.60;26.00;;;;;;;22.76;100.00;100981.23;105993;1257;96595;-82
2023/08/20 05:59:15;;;;;;;29.00;26.20;;;;;;;22.87;100.00;100983.36;106053;1257;109567;-81
2023/08/20 06:02:02;;;;;;;30.10;27.00;;;;;;;22.94;100.00;100978.89;105964;1257;100842;-82
2023/08/20 06:04:50;;;;;;;30.30;27.30;;;;;;;23.02;100.00;100984.38;105947;1260;97741;-81
2023/08/20 06:07:35;;;;;;;29.50;26.40;;;;;;;23.09;100.00;100985.36;105997;1257;97140;-81
2023/08/20 06:10:21;;;;;;;27.60;25.00;;;;;;;23.17;100.00;100988.13;106389;1258;96538;-80
2023/08/20 06:13:06;;;;;;;29.00;26.00;;;;;;;23.25;100.00;100990.16;107570;1260;99990;-81
2023/08/20 06:15:52;;;;;;;27.30;24.60;;;;;;;23.34;100.00;100989.33;107310;1257;100334;-80
2023/08/20 06:18:37;;;;;;;29.20;26.40;;;;;;;23.44;100.00;100990.18;107227;1257;97701;-83
2023/08/20 06:21:23;;;;;;;28.10;25.30;;;;;;;23.53;100.00;100992.67;107224;1257;96598;-81
2023/08/20 06:24:08;;;;;;;28.40;25.50;;;;;;;23.61;100.00;100992.02;107371;1258;96672;-79
2023/08/20 06:26:54;;;;;;;27.90;25.20;;;;;;;23.70;100.00;100991.91;107207;1257;100585;-82
2023/08/20 06:29:39;;;;;;;28.50;25.60;;;;;;;23.78;100.00;100993.72;107115;1260;100437;-82
2023/08/20 06:32:25;;;;;;;28.60;25.80;;;;;;;23.87;100.00;100996.72;107177;1257;97756;-81
2023/08/20 06:35:10;;;;;;;27.90;25.10;;;;;;;23.98;100.00;101001.05;107121;1257;97041;-81
2023/08/20 06:37:56;;;;;;;27.80;24.90;;;;;;;24.10;100.00;101004.10;106161;1257;96701;-82
2023/08/20 06:40:41;;;;;;;28.00;25.00;;;;;;;24.20;100.00;101002.13;105920;1260;100070;-80
2023/08/20 06:43:27;;;;;;;25.80;23.30;;;;;;;24.29;100.00;101004.25;105833;1260;100416;-80
2023/08/20 06:46:12;;;;;;;26.30;23.70;;;;;;;24.37;100.00;101006.64;105705;1263;98999;-80
2023/08/20 06:48:58;;;;;;;25.80;23.40;;;;;;;24.46;100.00;101006.36;105925;1257;96612;-81
2023/08/20 06:51:43;;;;;;;25.00;22.60;;;;;;;24.53;100.00;101006.70;105831;1261;96533;-81
2023/08/20 06:54:28;;;;;;;25.30;22.90;;;;;;;24.61;100.00;101008.09;106070;1257;101278;-83
2023/08/20 06:57:14;;;;;;;25.20;22.60;;;;;;;24.69;100.00;101008.62;105856;1261;99166;-82
2023/08/20 06:59:59;;;;;;;26.10;23.40;;;;;;;24.78;100.00;101014.52;106012;1257;97920;-81
2023/08/20 07:02:45;;;;;;;24.60;22.00;;;;;;;24.86;100.00;101020.36;105979;1257;96624;-84
2023/08/20 07:05:31;;;;;;;23.40;21.10;;;;;;;24.92;100.00;101024.71;106168;1257;97954;-83
2023/08/20 07:08:16;;;;;;;24.30;22.10;;;;;;;24.99;100.00;101028.73;106350;1257;101213;-81
2023/08/20 07:11:02;;;;;;;22.70;20.30;;;;;;;25.05;100.00;101028.29;106105;1257;99686;-82
2023/08/20 07:13:47;;;;;;;23.30;21.10;;;;;;;25.12;100.00;101027.10;106076;1258;97801;-83
2023/08/20 07:16:33;;;;;;;22.50;20.20;;;;;;;25.19;100.00;101024.75;106017;1263;96616;-82
2023/08/20 07:19:19;;;;;;;23.30;21.20;;;;;;;25.27;100.00;101021.95;106130;1258;96463;-82
2023/08/20 07:22:04;;;;;;;22.10;20.00;;;;;;;25.35;100.00;101024.00;106098;1263;101229;-82
2023/08/20 07:24:50;;;;;;;22.20;20.10;;;;;;;25.44;100.00;101026.09;106018;1258;100434;-83
2023/08/20 07:27:36;;;;;;;22.10;19.90;;;;;;;25.51;100.00;101025.95;106315;1260;97892;-81
2023/08/20 07:30:21;;;;;;;21.20;19.30;;;;;;;25.59;100.00;101027.70;106166;1256;96534;-82
2023/08/20 07:33:07;;;;;;;21.30;19.20;;;;;;;25.65;99.40;101028.35;106104;1257;96618;-82
2023/08/20 07:35:52;;;;;;;23.10;20.70;;;;;;;25.71;99.04;101027.58;106015;1260;100482;-81
2023/08/20 07:38:40;;;;;;;21.10;19.10;;;;;;;25.76;98.53;101027.02;106157;1258;100596;-82
2023/08/20 07:41:26;;;;;;;23.10;20.50;;;;;;;25.84;97.95;101026.63;106334;1260;97733;-82
2023/08/20 07:44:12;;;;;;;20.60;18.60;;;;;;;25.92;98.15;101031.16;106250;1257;97511;-81
2023/08/20 07:46:58;;;;;;;21.40;19.30;;;;;;;26.01;98.15;101032.41;106250;1258;97165;-80
2023/08/20 07:49:43;;;;;;;20.40;18.50;;;;;;;26.11;98.08;101036.30;106232;1257;100130;-80
2023/08/20 07:52:28;;;;;;;20.60;18.70;;;;;;;26.19;97.95;101036.06;106044;1261;100863;-81
2023/08/20 07:55:14;;;;;;;20.80;18.80;;;;;;;26.28;97.98;101035.16;106212;1258;98355;-82
2023/08/20 07:57:59;;;;;;;20.00;18.20;;;;;;;26.39;98.12;101032.59;106216;1257;96965;-80
2023/08/20 08:00:45;;;;;;;19.40;17.60;;;;;;;26.47;96.89;101035.36;106267;1260;96538;-82
2023/08/20 08:03:30;;;;;;;20.00;17.80;;;;;;;26.53;95.88;101037.26;106055;1260;100059;-80
2023/08/20 08:06:16;;;;;;;19.20;17.20;;;;;;;26.58;94.47;101038.63;106122;1257;107935;-80
2023/08/20 08:09:19;;;;;;;18.90;17.10;;;;;;;26.64;94.23;101044.73;105867;1263;97703;-82
2023/08/20 08:12:04;;;;;;;17.90;16.10;;;;;;;26.71;93.48;101043.63;106109;1257;96527;-81
2023/08/20 08:14:50;;;;;;;17.90;15.80;;;;;;;26.78;93.17;101043.61;106069;1257;96506;-82
2023/08/20 08:17:35;;;;;;;17.70;16.10;;;;;;;26.86;92.54;101044.29;106193;1257;100009;-81
2023/08/20 08:20:20;;;;;;;18.30;16.50;;;;;;;26.91;92.12;101040.45;106203;1257;100377;-82
2023/08/20 08:23:06;;;;;;;18.20;16.40;;;;;;;27.00;92.02;101038.15;106276;1257;98656;-83
2023/08/20 08:25:51;;;;;;;19.10;17.30;;;;;;;27.08;92.16;101037.21;106420;1258;97700;-82
2023/08/20 08:28:37;;;;;;;18.80;16.80;;;;;;;27.17;91.75;101034.34;106181;1260;96423;-81
2023/08/20 08:31:23;;;;;;;18.20;16.40;;;;;;;27.23;90.79;101036.00;106260;1257;101731;-81
2023/08/20 08:34:08;;;;;;;16.90;15.20;;;;;;;27.30;90.38;101034.13;105997;1260;100419;-83
2023/08/20 08:36:54;;;;;;;19.40;16.30;;;;;;;27.38;89.81;101033.65;106221;1258;98381;-83
2023/08/20 08:39:39;;;;;;;17.00;15.40;;;;;;;27.43;88.28;101036.20;106294;1260;97197;-82
2023/08/20 08:42:25;;;;;;;17.80;15.60;;;;;;;27.46;87.60;101038.88;106259;1260;97034;-81
2023/08/20 08:45:11;;;;;;;17.40;15.70;;;;;;;27.49;87.13;101036.31;106313;1258;100075;-82
2023/08/20 08:47:56;;;;;;;17.00;15.40;;;;;;;27.55;87.09;101036.44;106375;1258;100413;-81
2023/08/20 08:50:43;;;;;;;17.00;15.40;;;;;;;27.60;86.95;101035.36;106366;1260;97751;-81
2023/08/20 08:53:32;;;;;;;18.10;16.40;;;;;;;27.66;86.76;101036.84;106120;1257;96609;-82
2023/08/20 08:56:17;;;;;;;16.70;15.10;;;;;;;27.73;86.64;101031.38;106135;1257;96526;-82
2023/08/20 08:59:03;;;;;;;17.80;16.20;;;;;;;27.82;86.52;101032.29;106025;1257;101341;-82
2023/08/20 09:01:49;;;;;;;16.70;15.30;;;;;;;27.91;86.86;101030.82;106116;1257;99120;-81
2023/08/20 09:04:39;;;;;;;16.90;15.00;;;;;;;27.99;86.58;101035.38;106989;1257;99411;-82
2023/08/20 09:07:24;;;;;;;15.20;13.70;;;;;;;28.05;85.61;101036.91;106447;1260;97897;-83
2023/08/20 09:10:10;;;;;;;15.60;14.20;;;;;;;28.09;84.14;101036.23;105985;1257;97146;-82
2023/08/20 09:12:57;;;;;;;15.20;13.80;;;;;;;28.15;84.34;101035.76;106049;1258;100074;-83
2023/08/20 09:15:43;;;;;;;16.30;14.80;;;;;;;28.23;83.77;101034.40;106103;1257;100398;-83
2023/08/20 09:18:30;;;;;;;15.80;14.30;;;;;;;28.31;83.74;101032.98;106016;1257;97668;-83
2023/08/20 09:21:15;;;;;;;15.40;14.10;;;;;;;28.39;83.26;101028.26;106023;1262;97545;-82
2023/08/20 09:24:02;;;;;;;14.90;13.50;;;;;;;28.43;81.93;101026.95;106272;1258;96605;-82
2023/08/20 09:26:47;;;;;;;15.10;13.50;;;;;;;28.47;81.67;101027.23;106117;1261;100089;-82
2023/08/20 09:29:43;;;;;;;14.60;13.30;;;;;;;28.52;81.87;101030.73;106184;1257;99338;-81
2023/08/20 09:32:28;;;;;;;14.50;13.00;;;;;;;28.55;79.95;101032.86;105995;1256;97807;-83
2023/08/20 09:35:20;;;;;;;14.20;13.00;;;;;;;28.57;78.99;101029.81;106082;1260;97898;-82
2023/08/20 09:38:05;;;;;;;13.70;12.30;;;;;;;28.63;79.62;101030.86;106223;1260;97082;-82
2023/08/20 09:40:53;;;;;;;15.00;13.60;;;;;;;28.71;80.14;101030.64;106148;1257;101380;-82
2023/08/20 09:43:39;;;;;;;11.90;10.90;;;;;;;28.77;77.96;101033.58;106794;1260;99178;-80
2023/08/20 09:46:27;;;;;;;13.10;11.80;;;;;;;28.81;76.83;101031.81;106046;1262;97883;-81
2023/08/20 09:49:18;;;;;;;11.80;10.70;;;;;;;28.86;76.86;101030.92;106530;1258;96813;-81
2023/08/20 09:52:08;;;;;;;12.70;11.40;;;;;;;28.95;76.30;101028.80;106492;1257;96522;-80
2023/08/20 09:55:07;;;;;;;12.40;11.30;;;;;;;29.06;76.71;101028.36;106057;1260;100051;-82
2023/08/20 09:57:53;;;;;;;13.50;12.30;;;;;;;29.15;76.19;101027.19;106035;1260;99061;-82
2023/08/20 10:00:39;;;;;;;12.50;11.30;;;;;;;29.23;74.93;101025.76;105820;1257;99673;-81
2023/08/20 10:03:24;;;;;;;12.90;11.80;;;;;;;29.28;73.30;101026.78;105890;1263;96657;-83
2023/08/20 10:06:11;;;;;;;13.10;11.00;;;;;;;29.31;72.39;101028.98;105914;1260;98278;-83
2023/08/20 10:08:58;;;;;;;12.90;11.70;;;;;;;29.34;72.03;101026.75;105793;1257;99995;-82
2023/08/20 10:11:43;;;;;;;12.60;11.40;;;;;;;29.35;71.49;101026.00;105944;1260;99157;-84
2023/08/20 10:14:29;;;;;;;13.20;11.80;;;;;;;29.38;72.70;101022.63;105981;1257;98488;-83
2023/08/20 10:17:15;;;;;;;13.30;12.00;;;;;;;29.47;72.91;101014.36;106026;1257;96610;-83
2023/08/20 10:20:04;;;;;;;12.40;11.40;;;;;;;29.55;71.85;101009.22;105991;1257;96695;-83
2023/08/20 10:22:50;;;;;;;14.40;12.90;;;;;;;29.63;71.74;101009.73;106085;1261;100086;-81
2023/08/20 10:25:46;;;;;;;13.40;12.10;;;;;;;29.71;71.40;101010.20;106502;1258;100458;-83
2023/08/20 10:28:31;;;;;;;13.70;12.40;;;;;;;29.78;70.96;101012.20;105743;1261;97848;-83
2023/08/20 10:31:17;;;;;;;12.30;11.10;;;;;;;29.83;70.28;101006.85;105936;1257;96617;-81
2023/08/20 10:34:03;;;;;;;12.10;10.90;;;;;;;29.85;69.02;101001.02;105826;1258;97148;-83
2023/08/20 10:36:50;;;;;;;12.00;10.60;;;;;;;29.90;69.88;100999.48;105961;1257;100036;-82
2023/08/20 10:39:35;;;;;;;13.70;10.80;;;;;;;29.89;68.47;101003.19;105936;1257;107875;-82
2023/08/20 10:42:28;;;;;;;12.20;11.00;;;;;;;29.80;67.24;101002.86;106011;1256;98960;-83
2023/08/20 10:45:13;;;;;;;11.50;10.50;;;;;;;29.75;67.17;101001.54;105774;1258;96655;-82
2023/08/20 10:47:59;;;;;;;12.00;10.90;;;;;;;29.79;67.27;100998.59;105911;1263;96985;-82
2023/08/20 10:50:45;;;;;;;11.50;10.40;;;;;;;29.83;67.28;100993.59;105824;1255;100094;-83
2023/08/20 10:53:31;;;;;;;12.40;11.10;;;;;;;29.91;68.26;100994.54;106083;1260;100327;-82
2023/08/20 10:56:17;;;;;;;12.00;10.90;;;;;;;29.99;68.08;100995.09;106061;1258;97778;-83
2023/08/20 10:59:33;;;;;;;11.00;10.00;;;;;;;30.06;66.83;100997.89;105927;1257;96617;-84
2023/08/20 11:02:18;;;;;;;10.70;9.80;;;;;;;30.10;65.50;100990.52;106027;1255;97095;-83
2023/08/20 11:05:17;;;;;;;11.00;9.90;;;;;;;30.14;64.57;100987.90;106024;1257;100566;-82
2023/08/20 11:08:07;;;;;;;11.30;10.40;;;;;;;30.14;65.08;100983.92;106111;1257;99157;-81
2023/08/20 11:10:53;;;;;;;13.50;11.30;;;;;;;30.12;65.35;100984.89;106409;1260;98953;-81
2023/08/20 11:13:39;;;;;;;12.10;10.70;;;;;;;30.12;65.53;100984.63;106207;1257;96633;-81
2023/08/20 11:16:25;;;;;;;12.00;10.90;;;;;;;30.14;65.56;100980.82;106198;1257;95774;-82
2023/08/20 11:19:11;;;;;;;13.30;12.00;;;;;;;30.20;65.25;100982.02;106186;1257;100030;-84
2023/08/20 11:21:56;;;;;;;14.60;13.30;;;;;;;30.25;64.52;100985.40;106383;1257;107856;-81
2023/08/20 11:24:42;;;;;;;14.30;12.80;;;;;;;30.30;64.28;100980.95;106438;1256;99050;-82
2023/08/20 11:27:28;;;;;;;12.70;11.40;;;;;;;30.36;64.13;100977.29;106224;1258;96608;-81
2023/08/20 11:30:14;;;;;;;12.80;11.70;;;;;;;30.43;64.71;100972.34;106342;1260;96432;-82
2023/08/20 11:32:59;;;;;;;13.30;12.20;;;;;;;30.56;65.92;100973.10;105973;1257;101309;-84
2023/08/20 11:35:45;;;;;;;14.00;12.70;;;;;;;30.69;65.32;100971.43;106039;1258;100430;-83
2023/08/20 11:38:31;;;;;;;13.70;12.30;;;;;;;30.81;64.10;100966.73;106204;1257;97792;-83
2023/08/20 11:41:16;;;;;;;12.70;11.70;;;;;;;30.88;63.28;100966.78;106137;1258;96665;-84
2023/08/20 11:44:03;;;;;;;13.40;12.00;;;;;;;30.96;63.29;100969.98;106196;1260;96553;-81
2023/08/20 11:46:49;;;;;;;12.20;11.00;;;;;;;31.00;62.15;100971.98;105938;1263;99990;-82
2023/08/20 11:49:34;;;;;;;12.10;10.90;;;;;;;30.98;61.03;100967.95;106004;1255;99759;-83
2023/08/20 11:52:20;;;;;;;12.10;11.20;;;;;;;30.97;61.11;100967.41;106042;1256;97922;-83
2023/08/20 11:55:06;;;;;;;13.00;11.70;;;;;;;30.98;61.17;100968.89;106192;1257;98218;-83
2023/08/20 11:57:52;;;;;;;12.90;11.70;;;;;;;31.00;61.69;100969.06;106167;1257;97171;-83
2023/08/20 12:00:38;;;;;;;13.20;11.90;;;;;;;31.03;61.89;100969.64;106168;1257;101023;-84
2023/08/20 12:03:29;;;;;;;14.00;12.00;;;;;;;31.04;61.38;100966.41;106129;1258;99147;-83
2023/08/20 12:06:19;;;;;;;12.20;11.00;;;;;;;31.02;60.50;100966.64;105757;1264;98012;-82
2023/08/20 12:09:21;;;;;;;11.70;10.80;;;;;;;30.91;60.68;100964.25;105937;1257;96592;-84
2023/08/20 12:12:08;;;;;;;12.00;11.00;;;;;;;30.82;60.90;100962.88;106012;1259;96609;-84
2023/08/20 12:14:53;;;;;;;12.80;11.50;;;;;;;30.75;61.09;100964.91;105888;1256;100744;-84
2023/08/20 12:17:39;;;;;;;12.70;11.60;;;;;;;30.69;60.96;100967.60;105795;1258;99168;-86
2023/08/20 12:20:28;;;;;;;12.20;11.00;;;;;;;30.59;60.94;100966.50;105803;1257;97715;-83
2023/08/20 12:23:14;;;;;;;12.20;11.10;;;;;;;30.50;61.07;100962.60;106224;1257;96602;-83